Portada
METAR-TAF:

METAR-TAF

Aeroports :

Aeroport Internacional Pierre Elliott Trudeau

Montreal-Trudeau, Quebec, Canadà

latitud: 45-28N, longitud: 073-45W, altitud: 31 m

Observació

L'informe es va fer fa 22 hores i 3 minuts, a les 15:00 UTC
Vent 4 kt del Nord
Temperatura 7°C
Humitat 70%
Pressió 1013 hPa
Visibilitat: 24.1 km
Escasses núvols a una alçada de 2800 ft
Escasses núvols a una alçada de 8000 ft
Cel cobert a una alçada de 10000 ft

METAR: CYUL 291500Z 01004KT 15SM FEW028 FEW080 OVC100 07/02 A2990 RMK CU1AC2AC5 SLP128

Hora: 09:03 (13:03 UTC)

Pronòstic

L'informe es va fer fa 4 hores i 25 minuts, a les 08:38 UTC
Pronòstic vàlid del 30 a les 09 UTC al 31 a les 06 UTC
Vent 12 kt del Nord/Nord-Est
Visibilitat: 10 km
Núvols disperses a una alçada de 25000 ft
Evolucionant progressivament
l' 30 a les 21 UTC al 30 a les 23 UTC
Vent 3 kt amb direcció variable

TAF: CYUL 300838Z 3009/3106 02012KT P6SM SCT250 BECMG 3021/3023 VRB03KT RMK NXT FCST BY 301200Z

Observacions i pronòstics meteorològics de més de 4000 aeroports (METAR i TAF).

Les estacions disponibles són els punts grocs i vermells al mapa.

Posi el ratolí al punt desitjat per veure el nom de l'estació.

Feu clic per veure les observacions i els pronòstics meteorològics.

Per canviar el mapa: feu clic els botons verds amb una creu de color negre per apropar; al botó verd amb un guió per allunyar la imatge; o en les fletxes verdes per a mapes adjacents.


METAR-TAF: